Time;durP1;ratioP1;P1;durP2;ratioP2;P2;SDS_P1;SDS_P2;PMS_P1;PMS_P2;Temp;Humidity;BMP_temperature;BMP_pressure;BME280_temperature;BME280_humidity;BME280_pressure;Samples;Min_cycle;Max_cycle;Signal;HPM_P1;HPM_P2
2022/01/31 00:01:02;;;;;;;18.90;2.58;;;;;;;4.86;53.58;99442.19;3136860;28;20101;-62
2022/01/31 00:02:35;;;;;;;23.00;2.78;;;;;;;4.88;53.48;99443.00;3132976;28;20106;-62
2022/01/31 00:04:07;;;;;;;25.05;2.65;;;;;;;4.86;53.27;99438.75;3131102;28;20148;-61
2022/01/31 00:05:39;;;;;;;22.77;3.13;;;;;;;4.88;53.24;99444.69;3131145;28;20518;-62
2022/01/31 00:07:11;;;;;;;16.45;2.72;;;;;;;4.64;53.02;99399.78;3126776;28;20597;-62
2022/01/31 00:08:43;;;;;;;17.02;2.38;;;;;;;4.88;52.88;99427.50;3127471;28;20559;-61
2022/01/31 00:10:21;;;;;;;16.52;3.22;;;;;;;4.91;52.59;99422.25;3122316;28;20051;-62
2022/01/31 00:12:00;;;;;;;20.02;2.92;;;;;;;4.90;52.61;99425.72;3128647;28;20470;-62
2022/01/31 00:13:36;;;;;;;22.45;2.50;;;;;;;4.92;52.47;99429.09;3122384;28;20546;-61
2022/01/31 00:15:08;;;;;;;16.63;1.92;;;;;;;4.95;52.47;99426.44;3126957;28;20052;-62
2022/01/31 00:16:41;;;;;;;24.33;3.03;;;;;;;4.96;52.47;99428.13;3129045;28;20421;-61
2022/01/31 00:18:13;;;;;;;17.42;2.88;;;;;;;4.94;52.64;99426.47;3122089;28;20060;-61
2022/01/31 00:19:45;;;;;;;11.18;2.45;;;;;;;4.97;52.67;99426.41;3128053;28;20194;-61
2022/01/31 00:21:17;;;;;;;16.02;2.15;;;;;;;4.94;52.87;99426.47;3125753;28;20053;-61
2022/01/31 00:22:49;;;;;;;17.30;2.60;;;;;;;4.95;52.85;99433.34;3125037;28;20101;-62
2022/01/31 00:24:21;;;;;;;14.80;2.40;;;;;;;4.94;52.79;99426.47;3130603;28;20049;-61
2022/01/31 00:25:53;;;;;;;16.85;2.40;;;;;;;4.92;52.79;99429.09;3126710;28;20096;-61
2022/01/31 00:27:25;;;;;;;14.13;3.15;;;;;;;4.76;52.95;99413.22;3124779;28;20053;-61
2022/01/31 00:28:57;;;;;;;19.45;2.55;;;;;;;4.92;52.82;99433.44;3132243;28;20060;-62
2022/01/31 00:30:29;;;;;;;13.68;1.92;;;;;;;4.91;52.89;99430.00;3130918;28;20063;-61
2022/01/31 00:32:03;;;;;;;17.88;2.20;;;;;;;4.90;52.74;99424.88;3129852;28;20102;-62
2022/01/31 00:33:35;;;;;;;9.43;1.83;;;;;;;4.89;52.63;99438.66;3132930;28;20067;-62
2022/01/31 00:35:08;;;;;;;14.98;2.38;;;;;;;4.89;52.50;99423.19;3132588;28;20137;-61
2022/01/31 00:36:40;;;;;;;19.55;2.70;;;;;;;4.87;52.54;99427.53;3131668;28;20044;-62
2022/01/31 00:38:12;;;;;;;27.25;3.08;;;;;;;4.88;52.49;99421.47;3122063;28;20075;-62
2022/01/31 00:39:44;;;;;;;16.13;2.80;;;;;;;4.86;52.45;99415.53;3128592;28;20178;-61
2022/01/31 00:41:16;;;;;;;20.48;2.45;;;;;;;4.87;52.40;99430.97;3128557;28;20057;-62
2022/01/31 00:42:47;;;;;;;14.85;2.33;;;;;;;4.89;52.24;99425.78;3123740;28;20045;-63
2022/01/31 00:44:24;;;;;;;16.98;2.20;;;;;;;4.90;52.07;99427.44;3127040;28;20041;-61
2022/01/31 00:46:02;;;;;;;19.33;2.50;;;;;;;4.89;52.15;99428.34;3120912;28;20049;-62
2022/01/31 00:47:37;;;;;;;15.45;2.25;;;;;;;4.88;51.99;99424.06;3126405;28;20128;-61
2022/01/31 00:49:15;;;;;;;14.57;2.17;;;;;;;4.88;52.00;99431.81;3125339;28;20045;-60
2022/01/31 00:50:47;;;;;;;20.83;3.38;;;;;;;4.87;51.90;99422.38;3125092;28;20497;-61
2022/01/31 00:52:19;;;;;;;16.33;2.13;;;;;;;4.53;51.90;99371.75;3128451;28;20603;-62
2022/01/31 00:53:51;;;;;;;21.33;2.80;;;;;;;4.87;51.77;99428.38;3127796;28;20515;-61
2022/01/31 00:55:23;;;;;;;17.95;2.25;;;;;;;4.88;51.94;99429.22;3124470;28;20132;-62
2022/01/31 00:56:55;;;;;;;15.00;2.22;;;;;;;4.88;51.84;99421.47;3128336;28;20045;-62
2022/01/31 00:58:27;;;;;;;17.45;3.88;;;;;;;4.87;51.88;99420.63;3122571;28;20532;-62
2022/01/31 00:59:58;;;;;;;20.83;2.20;;;;;;;4.86;51.72;99423.28;3127706;28;20045;-61
2022/01/31 01:01:30;;;;;;;23.60;6.57;;;;;;;4.86;51.82;99418.97;3125174;28;20107;-62
2022/01/31 01:03:04;;;;;;;14.13;2.05;;;;;;;4.87;51.75;99414.63;3123675;28;20569;-62
2022/01/31 01:04:36;;;;;;;18.13;2.30;;;;;;;4.83;51.80;99408.72;3129449;28;20049;-61
2022/01/31 01:06:07;;;;;;;23.52;3.15;;;;;;;4.78;51.67;99401.09;3121219;28;20049;-62
2022/01/31 01:07:39;;;;;;;22.92;2.35;;;;;;;4.83;51.72;99411.31;3128536;28;20736;-62
2022/01/31 01:09:11;;;;;;;21.92;2.63;;;;;;;4.82;51.70;99412.16;3128415;28;20057;-62
2022/01/31 01:10:43;;;;;;;17.33;3.15;;;;;;;4.81;51.71;99410.50;3125348;28;20050;-61
2022/01/31 01:12:17;;;;;;;16.95;2.70;;;;;;;4.81;51.69;99409.66;3128418;28;20068;-62
2022/01/31 01:13:48;;;;;;;20.85;2.50;;;;;;;4.78;51.78;99410.56;3125557;28;20209;-61
2022/01/31 01:15:20;;;;;;;11.50;2.10;;;;;;;4.75;51.76;99401.19;3121827;28;20118;-61
2022/01/31 01:16:52;;;;;;;29.75;3.42;;;;;;;4.73;51.63;99397.81;3125710;28;20081;-62
2022/01/31 01:18:26;;;;;;;21.70;3.45;;;;;;;4.76;51.54;99413.22;3120533;28;20057;-62
2022/01/31 01:19:58;;;;;;;9.90;1.75;;;;;;;4.73;51.84;99412.44;3128417;28;20609;-61
2022/01/31 01:21:30;;;;;;;11.55;2.30;;;;;;;4.72;51.49;99416.75;3122695;28;20053;-61
2022/01/31 01:23:01;;;;;;;22.33;4.30;;;;;;;4.67;51.39;99402.28;3123861;28;20049;-63
2022/01/31 01:24:34;;;;;;;18.98;2.05;;;;;;;4.71;51.29;99402.16;3129676;28;20110;-63
2022/01/31 01:26:06;;;;;;;17.92;1.98;;;;;;;4.70;51.15;99400.50;3120396;28;20053;-63
2022/01/31 01:27:38;;;;;;;12.68;1.92;;;;;;;4.68;51.09;99407.41;3126357;28;20111;-63
2022/01/31 01:29:10;;;;;;;16.60;2.20;;;;;;;4.70;50.86;99408.22;3128274;28;20104;-61
2022/01/31 01:30:42;;;;;;;14.68;1.75;;;;;;;4.66;50.78;99406.59;3123477;28;20037;-61
2022/01/31 01:32:14;;;;;;;15.48;2.08;;;;;;;4.70;50.57;99410.81;3129117;28;20500;-63
2022/01/31 01:33:47;;;;;;;10.57;1.57;;;;;;;4.71;50.54;99409.91;3123181;28;20645;-63
2022/01/31 01:35:20;;;;;;;11.43;1.73;;;;;;;4.70;50.48;99408.22;3125767;28;20331;-63
2022/01/31 01:36:53;;;;;;;19.90;1.73;;;;;;;4.72;50.31;99408.16;3129641;28;20045;-63
2022/01/31 01:38:29;;;;;;;14.05;1.83;;;;;;;4.71;50.06;99409.91;3120411;28;20061;-61
2022/01/31 01:40:01;;;;;;;9.18;1.30;;;;;;;4.72;50.05;99405.59;3127356;28;20068;-63
2022/01/31 01:41:33;;;;;;;11.25;1.77;;;;;;;4.73;49.79;99412.44;3126172;28;20054;-61
2022/01/31 01:43:05;;;;;;;13.00;2.03;;;;;;;4.73;49.75;99408.16;3125035;28;20128;-63
2022/01/31 01:44:45;;;;;;;18.77;1.73;;;;;;;4.75;49.32;99406.34;3128258;28;20080;-63
2022/01/31 01:46:17;;;;;;;13.77;1.45;;;;;;;4.76;49.43;99405.47;3121590;28;20083;-64
2022/01/31 01:47:49;;;;;;;12.40;1.80;;;;;;;4.78;49.36;99403.69;3127033;28;20052;-62
2022/01/31 01:49:22;;;;;;;11.77;1.63;;;;;;;4.82;49.14;99411.34;3129096;28;20540;-63
2022/01/31 01:50:54;;;;;;;;;;;;;;;4.63;49.33;99411.00;3123415;28;20045;-61
2022/01/31 01:52:26;;;;;;;9.65;2.00;;;;;;;4.68;49.12;99399.69;3127183;28;19927;-61
2022/01/31 01:53:59;;;;;;;17.92;1.90;;;;;;;4.77;48.98;99402.00;3126587;28;20056;-63
2022/01/31 01:55:31;;;;;;;14.02;1.75;;;;;;;4.78;48.75;99403.69;3126930;28;20040;-63
2022/01/31 01:57:03;;;;;;;10.02;1.88;;;;;;;4.81;48.60;99396.75;3125746;28;20046;-63
2022/01/31 01:58:40;;;;;;;16.13;1.52;;;;;;;4.79;48.54;99394.19;3120612;28;20519;-64
2022/01/31 02:00:18;;;;;;;14.75;2.17;;;;;;;4.70;48.34;99374.69;3126048;28;20171;-60
2022/01/31 02:01:50;;;;;;;14.52;1.83;;;;;;;4.86;48.13;99387.16;3127562;28;20080;-63
2022/01/31 02:03:22;;;;;;;12.48;2.80;;;;;;;4.88;47.91;99393.09;3122762;28;20075;-62
2022/01/31 02:04:57;;;;;;;14.20;1.87;;;;;;;4.87;47.98;99391.41;3129352;28;20045;-62
2022/01/31 02:06:29;;;;;;;9.68;1.38;;;;;;;4.90;47.79;99396.50;3119936;28;20053;-62
2022/01/31 02:08:01;;;;;;;14.25;1.50;;;;;;;4.90;47.73;99404.22;3128095;28;20103;-62
2022/01/31 02:09:42;;;;;;;12.48;2.03;;;;;;;4.93;47.46;99391.25;3124658;28;20103;-62
2022/01/31 02:11:14;;;;;;;15.25;2.50;;;;;;;4.94;47.39;99409.28;3123212;28;20067;-61
2022/01/31 02:12:48;;;;;;;15.02;2.05;;;;;;;4.97;47.34;99408.34;3128467;28;20056;-62
2022/01/31 02:14:20;;;;;;;17.77;1.73;;;;;;;4.97;47.00;99408.34;3120280;28;20072;-63
2022/01/31 02:15:52;;;;;;;14.80;2.55;;;;;;;4.98;47.04;99405.72;3127397;28;20098;-63
2022/01/31 02:17:24;;;;;;;18.55;1.75;;;;;;;5.00;46.98;99409.09;3129298;28;20052;-61
2022/01/31 02:18:56;;;;;;;15.82;2.20;;;;;;;5.01;46.97;99407.34;3123671;28;20053;-61
2022/01/31 02:20:29;;;;;;;9.30;1.58;;;;;;;5.04;46.81;99416.75;3128033;28;20049;-64
2022/01/31 02:22:02;;;;;;;;;;;;;;;4.86;46.97;99424.13;3125029;28;20053;-61
2022/01/31 02:23:34;;;;;;;12.77;1.20;;;;;;;4.92;46.94;99430.84;3123405;28;19921;-62
2022/01/31 02:25:07;;;;;;;10.50;1.92;;;;;;;4.95;46.72;99418.69;3128934;28;20052;-63
2022/01/31 02:26:39;;;;;;;14.73;1.17;;;;;;;4.97;46.78;99416.09;3120381;28;20162;-62
2022/01/31 02:28:11;;;;;;;8.48;1.63;;;;;;;4.99;46.43;99420.28;3126291;28;20052;-61
2022/01/31 02:29:42;;;;;;;13.52;1.58;;;;;;;4.99;46.38;99417.72;3127036;28;20053;-61
2022/01/31 02:31:14;;;;;;;17.55;1.65;;;;;;;5.01;46.12;99420.25;3122149;28;20506;-61
2022/01/31 02:32:47;;;;;;;16.55;1.58;;;;;;;5.03;46.15;99413.34;3127239;28;20110;-62
2022/01/31 02:34:18;;;;;;;8.93;1.95;;;;;;;5.05;46.08;99414.09;3131469;28;20050;-61
2022/01/31 02:35:54;;;;;;;17.88;2.05;;;;;;;5.06;46.03;99413.25;3125522;28;20041;-62
2022/01/31 02:37:28;;;;;;;9.63;1.90;;;;;;;5.06;45.88;99420.97;3130722;28;20064;-62
2022/01/31 02:38:59;;;;;;;;;;;;;;;4.89;46.40;99420.63;3131660;28;20152;-61
2022/01/31 02:40:32;;;;;;;12.30;1.45;;;;;;;4.96;46.15;99409.22;3128039;28;19939;-62
2022/01/31 02:42:04;;;;;;;14.57;1.63;;;;;;;5.00;46.11;99409.09;3121695;28;20511;-61
2022/01/31 02:43:36;;;;;;;16.73;1.67;;;;;;;4.80;45.94;99370.13;3125076;28;20049;-61
2022/01/31 02:45:08;;;;;;;11.88;1.50;;;;;;;5.05;45.82;99415.84;3127739;28;20048;-61
2022/01/31 02:46:45;;;;;;;14.75;1.70;;;;;;;5.04;45.97;99409.84;3119692;28;20049;-61
2022/01/31 02:48:21;;;;;;;11.18;2.10;;;;;;;5.03;45.89;99415.91;3126765;28;20072;-61
2022/01/31 02:49:57;;;;;;;19.95;2.05;;;;;;;4.96;45.87;99401.47;3130011;28;20045;-61
2022/01/31 02:51:31;;;;;;;14.13;1.58;;;;;;;5.00;46.07;99414.25;3120952;28;20197;-61
2022/01/31 02:53:21;;;;;;;15.63;2.60;;;;;;;5.00;46.00;99409.09;3128911;28;20049;-61
2022/01/31 02:54:53;;;;;;;10.45;1.45;;;;;;;4.98;46.04;99410.03;3123931;28;20057;-61
2022/01/31 02:56:24;;;;;;;12.60;1.65;;;;;;;4.99;46.10;99416.88;3128251;28;20084;-61
2022/01/31 02:57:56;;;;;;;9.35;1.95;;;;;;;4.96;46.26;99419.53;3125473;28;20050;-61
2022/01/31 02:59:28;;;;;;;7.13;1.45;;;;;;;4.93;46.24;99415.31;3121392;28;20052;-61
2022/01/31 03:01:00;;;;;;;14.10;1.77;;;;;;;4.94;46.31;99421.31;3127220;28;20037;-61
2022/01/31 03:02:32;;;;;;;14.20;1.85;;;;;;;4.90;46.31;99415.38;3121710;28;20593;-61
2022/01/31 03:04:04;;;;;;;11.90;1.42;;;;;;;4.88;46.49;99422.34;3123364;28;20502;-61
2022/01/31 03:05:37;;;;;;;9.18;1.40;;;;;;;4.88;46.60;99426.63;3128866;28;20520;-61
2022/01/31 03:07:09;;;;;;;11.40;2.65;;;;;;;4.86;46.57;99434.44;3122705;28;20049;-61
2022/01/31 03:08:42;;;;;;;9.20;2.00;;;;;;;4.89;46.54;99425.78;3128072;28;20483;-60
2022/01/31 03:10:14;;;;;;;9.18;1.95;;;;;;;4.87;46.46;99417.22;3125355;28;20430;-61
2022/01/31 03:11:46;;;;;;;13.48;1.27;;;;;;;4.88;46.48;99429.22;3125188;28;20532;-60
2022/01/31 03:13:18;;;;;;;10.15;1.15;;;;;;;4.89;46.39;99442.09;3128826;28;20049;-61
2022/01/31 03:14:50;;;;;;;9.10;2.00;;;;;;;4.90;46.30;99435.19;3121883;28;20115;-61
2022/01/31 03:16:22;;;;;;;12.35;1.60;;;;;;;4.90;46.36;99437.78;3124784;28;20054;-61
2022/01/31 03:17:54;;;;;;;7.85;1.50;;;;;;;4.92;46.31;99438.59;3130023;28;20053;-61
2022/01/31 03:19:26;;;;;;;13.68;2.03;;;;;;;4.91;46.10;99440.31;3120628;28;20503;-61
2022/01/31 03:20:58;;;;;;;9.75;1.60;;;;;;;4.91;46.13;99442.03;3129111;28;20037;-61
2022/01/31 03:22:30;;;;;;;13.73;1.50;;;;;;;4.90;46.10;99435.19;3128075;28;20104;-61
2022/01/31 03:24:03;;;;;;;9.73;1.10;;;;;;;4.92;46.09;99447.16;3126909;28;20451;-61
2022/01/31 03:25:34;;;;;;;;;;;;;;;4.73;46.26;99448.53;3126287;28;20475;-62
2022/01/31 03:27:06;;;;;;;11.75;1.35;;;;;;;4.76;46.33;99438.13;3121850;28;19929;-61
2022/01/31 03:28:38;;;;;;;11.50;1.05;;;;;;;4.82;46.35;99444.88;3127653;28;20067;-61
2022/01/31 03:30:15;;;;;;;9.70;1.15;;;;;;;4.85;46.30;99444.78;3126057;28;20082;-61
2022/01/31 03:31:45;;;;;;;13.63;1.50;;;;;;;4.84;46.31;99445.69;3123570;28;20496;-61
2022/01/31 03:33:18;;;;;;;5.13;1.20;;;;;;;4.83;46.35;99444.84;3132763;28;20136;-61
2022/01/31 03:34:50;;;;;;;7.53;1.15;;;;;;;4.85;46.31;99452.53;3131278;28;20507;-61
2022/01/31 03:36:22;;;;;;;15.07;1.30;;;;;;;4.87;46.38;99448.19;3126713;28;20045;-61
2022/01/31 03:37:54;;;;;;;10.60;1.40;;;;;;;4.84;46.52;99448.25;3128346;28;20114;-61
2022/01/31 03:39:27;;;;;;;5.78;0.93;;;;;;;4.82;46.56;99437.97;3126125;28;20048;-61
2022/01/31 03:40:59;;;;;;;10.35;1.55;;;;;;;4.83;46.64;99441.41;3130034;28;20041;-61
2022/01/31 03:42:31;;;;;;;10.05;1.30;;;;;;;4.59;46.80;99412.00;3124542;28;20057;-61
2022/01/31 03:44:03;;;;;;;8.40;1.65;;;;;;;4.82;47.11;99440.56;3125068;28;20103;-62
2022/01/31 03:45:35;;;;;;;7.32;1.40;;;;;;;4.80;47.33;99439.78;3129920;28;20186;-63
2022/01/31 03:47:07;;;;;;;14.30;1.67;;;;;;;4.79;47.53;99448.38;3121768;28;20092;-62
2022/01/31 03:48:40;;;;;;;4.22;1.40;;;;;;;4.79;47.58;99448.38;3126885;28;20053;-62
2022/01/31 03:50:14;;;;;;;8.55;1.50;;;;;;;4.76;47.73;99449.34;3128511;28;20837;-62
2022/01/31 03:51:45;;;;;;;;;;;;;;;4.57;48.06;99461.00;3124375;28;20049;-62
2022/01/31 03:53:17;;;;;;;11.20;1.38;;;;;;;4.64;48.33;99475.44;3130373;28;20000;-62
2022/01/31 03:54:51;;;;;;;9.50;1.30;;;;;;;4.68;48.17;99471.06;3125757;28;20059;-63
2022/01/31 03:56:22;;;;;;;11.55;2.60;;;;;;;4.67;48.39;99467.59;3124200;28;20555;-62
2022/01/31 03:57:55;;;;;;;8.07;1.88;;;;;;;4.68;48.38;99477.06;3132059;28;20041;-62
2022/01/31 03:59:26;;;;;;;12.05;1.88;;;;;;;4.64;48.50;99469.44;3133224;28;20053;-62
2022/01/31 04:00:58;;;;;;;13.45;1.52;;;;;;;4.67;48.57;99490.81;3129329;28;20102;-61
2022/01/31 04:02:30;;;;;;;10.93;2.08;;;;;;;4.67;48.49;99495.13;3129346;28;20132;-61
2022/01/31 04:04:02;;;;;;;11.65;1.38;;;;;;;4.67;48.55;99503.72;3123686;28;20080;-61
2022/01/31 04:05:34;;;;;;;10.25;1.58;;;;;;;4.66;48.66;99506.34;3128954;28;20052;-60
2022/01/31 04:07:06;;;;;;;8.98;1.85;;;;;;;4.64;48.59;99501.22;3121970;28;20131;-61
2022/01/31 04:08:37;;;;;;;15.93;1.67;;;;;;;4.64;48.81;99501.22;3130000;28;20183;-61
2022/01/31 04:10:11;;;;;;;6.43;1.35;;;;;;;4.65;48.72;99505.50;3125091;28;20050;-61
2022/01/31 04:11:43;;;;;;;10.55;1.63;;;;;;;4.63;48.60;99509.84;3130810;28;20491;-61
2022/01/31 04:13:16;;;;;;;9.02;1.50;;;;;;;4.57;48.71;99499.69;3130265;28;20049;-61
2022/01/31 04:14:48;;;;;;;14.00;1.65;;;;;;;4.56;48.73;99504.00;3123198;28;20085;-61
2022/01/31 04:16:20;;;;;;;11.00;2.03;;;;;;;4.60;48.75;99509.94;3126164;28;20132;-61
2022/01/31 04:17:52;;;;;;;7.15;1.98;;;;;;;4.59;48.79;99504.81;3131080;28;20473;-61
2022/01/31 04:19:24;;;;;;;12.10;1.88;;;;;;;4.40;48.74;99482.06;3121093;28;20061;-61
2022/01/31 04:20:56;;;;;;;14.15;2.05;;;;;;;4.57;48.73;99520.31;3129083;28;20060;-61
2022/01/31 04:22:30;;;;;;;9.27;2.15;;;;;;;4.57;48.74;99520.31;3126610;28;20119;-62
2022/01/31 04:24:03;;;;;;;11.23;1.70;;;;;;;4.54;48.83;99518.66;3124135;28;20059;-61
2022/01/31 04:25:43;;;;;;;9.80;1.75;;;;;;;4.56;48.74;99510.91;3131653;28;20103;-62
2022/01/31 04:27:19;;;;;;;10.70;2.03;;;;;;;4.52;48.68;99515.28;3124622;28;20049;-61
2022/01/31 04:29:01;;;;;;;14.10;1.60;;;;;;;4.53;48.72;99523.88;3127085;28;20155;-62
2022/01/31 04:30:36;;;;;;;14.60;2.70;;;;;;;4.52;48.79;99527.31;3127044;28;20535;-61
2022/01/31 04:32:08;;;;;;;14.05;2.22;;;;;;;4.46;48.63;99515.41;3125149;28;20049;-61
2022/01/31 04:33:41;;;;;;;10.98;2.05;;;;;;;4.49;48.78;99523.09;3129878;28;20045;-61
2022/01/31 04:35:13;;;;;;;19.25;2.15;;;;;;;4.47;48.76;99514.56;3127728;28;20064;-60
2022/01/31 04:36:45;;;;;;;10.57;1.80;;;;;;;4.48;48.80;99515.41;3128080;28;20060;-61
2022/01/31 04:38:17;;;;;;;11.40;2.08;;;;;;;4.13;48.75;99462.13;3126573;28;20077;-61
2022/01/31 04:39:49;;;;;;;7.85;2.03;;;;;;;4.45;48.67;99515.47;3122720;28;20496;-61
2022/01/31 04:41:22;;;;;;;8.60;3.28;;;;;;;4.28;48.74;99484.94;3129606;28;20041;-61
2022/01/31 04:42:54;;;;;;;12.60;3.85;;;;;;;4.43;48.80;99523.22;3127308;28;20053;-61
2022/01/31 04:44:26;;;;;;;16.63;2.20;;;;;;;4.42;48.80;99511.25;3128198;28;20057;-61
2022/01/31 04:46:00;;;;;;;10.55;2.60;;;;;;;4.43;48.78;99509.50;3128736;28;20198;-61
2022/01/31 04:47:32;;;;;;;14.95;4.97;;;;;;;4.41;48.78;99514.72;3120788;28;20135;-61
2022/01/31 04:49:04;;;;;;;11.73;2.42;;;;;;;4.40;48.75;99509.59;3127135;28;20368;-61
2022/01/31 04:50:36;;;;;;;16.42;2.58;;;;;;;4.40;48.71;99518.16;3125041;28;20742;-62
2022/01/31 04:52:08;;;;;;;16.98;1.95;;;;;;;4.41;48.82;99527.59;3123603;28;20525;-61
2022/01/31 04:53:40;;;;;;;9.73;1.90;;;;;;;4.41;48.80;99526.72;3129268;28;20067;-61
2022/01/31 04:55:12;;;;;;;15.27;2.60;;;;;;;4.40;48.74;99519.91;3121674;28;20064;-61
2022/01/31 04:56:46;;;;;;;9.55;2.00;;;;;;;4.40;48.84;99525.06;3125914;28;20053;-61
2022/01/31 04:58:19;;;;;;;16.42;1.75;;;;;;;4.37;48.96;99517.38;3131694;28;20059;-61
2022/01/31 04:59:52;;;;;;;8.13;1.80;;;;;;;4.34;49.00;99516.56;3125432;28;20130;-61
2022/01/31 05:01:24;;;;;;;7.20;1.90;;;;;;;4.35;48.96;99517.44;3127847;28;20136;-61
2022/01/31 05:02:56;;;;;;;6.72;1.83;;;;;;;4.36;48.99;99526.03;3125189;28;20068;-61
2022/01/31 05:04:28;;;;;;;13.80;2.25;;;;;;;4.34;48.89;99533.78;3124918;28;20053;-61
2022/01/31 05:06:00;;;;;;;10.35;1.83;;;;;;;4.33;48.78;99532.94;3131297;28;20041;-61
2022/01/31 05:07:33;;;;;;;10.82;2.08;;;;;;;4.32;48.88;99549.28;3128864;28;20053;-61
2022/01/31 05:09:05;;;;;;;9.77;1.88;;;;;;;4.30;49.06;99550.22;3128237;28;20156;-61
2022/01/31 05:10:43;;;;;;;11.90;1.95;;;;;;;4.28;48.96;99547.66;3131389;28;20414;-61
2022/01/31 05:12:16;;;;;;;10.68;2.30;;;;;;;4.28;49.00;99551.97;3129299;28;20536;-61
2022/01/31 05:13:48;;;;;;;19.15;2.60;;;;;;;4.26;49.00;99556.31;3129635;28;20057;-61
2022/01/31 05:15:20;;;;;;;10.23;2.13;;;;;;;4.27;49.21;99551.13;3129335;28;20542;-61
2022/01/31 05:16:51;;;;;;;8.40;3.28;;;;;;;4.26;49.03;99562.31;3129142;28;20052;-61
2022/01/31 05:18:23;;;;;;;14.15;4.97;;;;;;;4.26;48.92;99572.63;3130987;28;20048;-61
2022/01/31 05:19:55;;;;;;;15.30;4.70;;;;;;;4.27;49.02;99574.31;3131828;28;20423;-62
2022/01/31 05:21:27;;;;;;;13.80;4.70;;;;;;;4.26;48.88;99567.47;3127997;28;20080;-62
2022/01/31 05:22:59;;;;;;;14.65;3.05;;;;;;;4.27;48.87;99568.31;3130026;28;20048;-62
2022/01/31 05:24:31;;;;;;;9.68;3.28;;;;;;;4.26;48.85;99569.19;3130914;28;20506;-62
2022/01/31 05:26:03;;;;;;;17.77;2.95;;;;;;;4.27;48.94;99573.47;3129076;28;20102;-62
2022/01/31 05:27:37;;;;;;;11.32;2.50;;;;;;;4.27;48.91;99578.63;3127392;28;20053;-61
2022/01/31 05:29:08;;;;;;;;;;;;;;;4.09;49.24;99587.63;3128841;28;20170;-62
2022/01/31 05:30:40;;;;;;;10.38;2.50;;;;;;;4.15;49.16;99569.47;3130140;28;19998;-62
2022/01/31 05:32:12;;;;;;;13.93;2.08;;;;;;;4.21;49.12;99569.31;3128706;28;20072;-62
2022/01/31 05:33:44;;;;;;;15.65;2.30;;;;;;;4.24;49.11;99579.56;3129454;28;20053;-62
2022/01/31 05:35:16;;;;;;;10.85;2.95;;;;;;;4.29;49.07;99572.56;3130556;28;20441;-62
2022/01/31 05:36:51;;;;;;;18.92;3.05;;;;;;;4.29;48.90;99571.72;3127992;28;20057;-62
2022/01/31 05:38:23;;;;;;;10.40;2.15;;;;;;;4.01;48.94;99523.38;3130276;28;20052;-62
2022/01/31 05:39:55;;;;;;;12.38;2.28;;;;;;;4.36;48.70;99582.75;3130700;28;20076;-61
2022/01/31 05:41:26;;;;;;;11.38;2.97;;;;;;;4.38;48.73;99578.38;3126642;28;20158;-62
2022/01/31 05:43:00;;;;;;;13.95;2.80;;;;;;;4.38;48.79;99576.66;3131406;28;20048;-61
2022/01/31 05:44:32;;;;;;;13.30;2.97;;;;;;;4.35;48.81;99576.75;3129533;28;20050;-61
2022/01/31 05:46:03;;;;;;;12.15;2.70;;;;;;;4.37;48.77;99577.53;3130422;28;20136;-62
2022/01/31 05:47:36;;;;;;;14.82;3.00;;;;;;;4.39;48.65;99577.50;3128719;28;20041;-62
2022/01/31 05:49:08;;;;;;;12.95;3.08;;;;;;;4.40;48.57;99577.47;3127834;28;20125;-62
2022/01/31 05:50:39;;;;;;;8.75;2.88;;;;;;;4.42;48.50;99575.69;3129645;28;20049;-62
2022/01/31 05:52:11;;;;;;;16.25;3.45;;;;;;;4.41;48.41;99576.59;3130411;28;20052;-62
2022/01/31 05:53:44;;;;;;;7.72;3.33;;;;;;;4.44;48.19;99586.00;3129976;28;20441;-61
2022/01/31 05:55:16;;;;;;;20.42;2.97;;;;;;;4.43;48.28;99576.53;3129897;28;20052;-61
2022/01/31 05:56:49;;;;;;;8.40;2.47;;;;;;;4.43;48.28;99592.84;3127032;28;20053;-61
2022/01/31 05:58:22;;;;;;;13.93;2.42;;;;;;;4.46;48.04;99584.19;3128546;28;20449;-61
2022/01/31 05:59:54;;;;;;;11.07;2.63;;;;;;;4.46;48.09;99576.47;3131644;28;20052;-61
2022/01/31 06:01:26;;;;;;;8.43;2.95;;;;;;;4.48;48.12;99582.44;3127508;28;20060;-61
2022/01/31 06:02:59;;;;;;;11.73;2.60;;;;;;;4.51;47.99;99577.22;3129054;28;20045;-61
2022/01/31 06:04:31;;;;;;;;;;;;;;;4.33;48.19;99584.50;3128618;28;20118;-61
2022/01/31 06:06:03;;;;;;;16.45;2.38;;;;;;;4.39;48.39;99580.94;3128157;28;20442;-62
2022/01/31 06:07:35;;;;;;;14.93;3.42;;;;;;;4.49;48.19;99594.44;3130684;28;20049;-61
2022/01/31 06:09:07;;;;;;;10.75;2.60;;;;;;;4.54;48.08;99590.03;3126841;28;20048;-61
2022/01/31 06:10:43;;;;;;;17.70;2.40;;;;;;;4.53;47.95;99591.78;3127242;28;20075;-61
2022/01/31 06:12:16;;;;;;;14.55;2.58;;;;;;;4.58;47.92;99599.38;3128879;28;20315;-61
2022/01/31 06:13:50;;;;;;;16.15;2.40;;;;;;;4.61;47.79;99596.72;3126867;28;20064;-61
2022/01/31 06:15:22;;;;;;;13.10;2.80;;;;;;;4.64;47.82;99591.50;3128271;28;20097;-61
2022/01/31 06:16:54;;;;;;;13.35;2.30;;;;;;;4.67;47.55;99599.16;3128346;28;20082;-61
2022/01/31 06:18:26;;;;;;;11.75;2.33;;;;;;;4.73;47.49;99601.63;3127939;28;20663;-61
2022/01/31 06:19:57;;;;;;;11.07;2.08;;;;;;;4.76;47.36;99609.28;3130099;28;20552;-61
2022/01/31 06:21:29;;;;;;;8.15;2.38;;;;;;;4.81;47.18;99605.72;3128416;28;20072;-61
2022/01/31 06:23:00;;;;;;;11.93;2.47;;;;;;;4.83;47.15;99603.97;3129212;28;20045;-61
2022/01/31 06:24:32;;;;;;;12.05;2.83;;;;;;;4.89;47.05;99588.31;3128272;28;20053;-61
2022/01/31 06:26:04;;;;;;;14.10;2.63;;;;;;;4.93;46.94;99600.25;3128450;28;20106;-61
2022/01/31 06:27:36;;;;;;;9.10;2.00;;;;;;;4.94;46.78;99596.78;3128563;28;20536;-61
2022/01/31 06:29:10;;;;;;;12.45;1.52;;;;;;;5.02;46.49;99605.16;3127439;28;20055;-61
2022/01/31 06:30:42;;;;;;;14.60;2.20;;;;;;;5.08;46.42;99615.34;3129220;28;20049;-61
2022/01/31 06:32:14;;;;;;;13.13;2.40;;;;;;;5.10;46.30;99600.66;3129692;28;20049;-61
2022/01/31 06:33:45;;;;;;;12.40;2.00;;;;;;;5.17;46.18;99607.34;3128474;28;20053;-61
2022/01/31 06:35:17;;;;;;;11.30;2.30;;;;;;;5.19;45.90;99600.41;3128510;28;20522;-62
2022/01/31 06:36:49;;;;;;;11.63;2.60;;;;;;;5.07;45.81;99582.69;3127774;28;20044;-61
2022/01/31 06:38:22;;;;;;;13.68;2.90;;;;;;;5.34;45.54;99613.81;3127065;28;20054;-61
2022/01/31 06:39:54;;;;;;;12.60;2.40;;;;;;;5.34;45.51;99603.50;3129593;28;20048;-61
2022/01/31 06:41:28;;;;;;;11.18;2.10;;;;;;;5.46;45.43;99610.91;3128149;28;20118;-61
2022/01/31 06:43:00;;;;;;;16.80;2.63;;;;;;;5.54;45.32;99613.28;3129708;28;20529;-61
2022/01/31 06:44:36;;;;;;;14.88;2.60;;;;;;;5.76;45.31;99616.94;3129682;28;20053;-61
2022/01/31 06:46:08;;;;;;;16.48;3.55;;;;;;;6.05;45.24;99617.88;3128131;28;20614;-61
2022/01/31 06:47:40;;;;;;;14.23;2.70;;;;;;;6.36;45.09;99623.84;3128258;28;20041;-62
2022/01/31 06:49:12;;;;;;;8.95;2.30;;;;;;;6.70;44.68;99622.75;3127878;28;20057;-62
2022/01/31 06:50:44;;;;;;;18.95;3.33;;;;;;;7.05;44.41;99631.97;3127773;28;20053;-62
2022/01/31 06:52:15;;;;;;;10.00;2.92;;;;;;;7.40;43.80;99635.09;3129601;28;20103;-62
2022/01/31 06:53:48;;;;;;;14.43;6.15;;;;;;;7.69;43.02;99634.06;3128139;28;20044;-61
2022/01/31 06:55:21;;;;;;;13.52;2.80;;;;;;;7.95;42.37;99614.09;3130093;28;20060;-61
2022/01/31 06:56:53;;;;;;;13.73;3.20;;;;;;;8.18;41.85;99636.59;3130888;28;20047;-61
2022/01/31 06:58:25;;;;;;;9.52;2.10;;;;;;;8.41;40.91;99627.97;3129666;28;20092;-61
2022/01/31 06:59:59;;;;;;;11.85;2.42;;;;;;;8.71;40.69;99635.44;3133207;28;20041;-64
2022/01/31 07:01:31;;;;;;;16.55;3.70;;;;;;;8.94;40.53;99632.75;3129492;28;20052;-65
2022/01/31 07:03:06;;;;;;;16.75;8.40;;;;;;;9.21;40.03;99620.38;3130558;28;20098;-65
2022/01/31 07:04:37;;;;;;;16.90;11.75;;;;;;;9.48;39.68;99626.13;3131974;28;20061;-65
2022/01/31 07:06:11;;;;;;;19.35;6.07;;;;;;;9.63;39.19;99614.22;3129071;28;20055;-66
2022/01/31 07:07:43;;;;;;;;;;;;;;;9.71;39.75;99614.72;3132893;28;20057;-66
2022/01/31 07:09:15;;;;;;;15.73;2.83;;;;;;;9.82;38.59;99596.06;3131268;28;19982;-65
2022/01/31 07:10:51;;;;;;;16.02;3.10;;;;;;;10.25;37.88;99614.88;3130294;28;20114;-65
2022/01/31 07:12:29;;;;;;;20.05;3.88;;;;;;;10.43;37.64;99618.41;3133841;28;20128;-66
2022/01/31 07:14:04;;;;;;;15.45;3.58;;;;;;;10.62;37.07;99613.19;3129911;28;20603;-65
2022/01/31 07:15:38;;;;;;;10.77;3.25;;;;;;;10.76;36.51;99609.88;3132068;28;20075;-65
2022/01/31 07:17:10;;;;;;;12.40;2.85;;;;;;;10.91;36.53;99611.72;3124504;28;20053;-62
2022/01/31 07:18:43;;;;;;;17.17;2.97;;;;;;;11.03;35.89;99605.94;3129744;28;20053;-62